Cedar Mill, Oregon
Current Conditions -  °F | °C
As of 9:53 AM on Tuesday 21 Oct 2014 (Local Time) from KHIO Reporting Station
Overcast Overcast  
Wind Chill: 56°   Ceiling: 1300
Heat Index: 56°   Visibility: 10mi
Dew Point: 51°   Wind: 12mph
Humidity: 84%   Direction: 180°S
Pressure: 29.99"   Gusts: NA
Location:  45.5251°N, 122.809°W
Report Text: KHIO 211653Z 18010KT 10SM BKN013 BKN028 OVC120 13/11 A2999 RMK AO2 SLP153 T01330106
Loading
Personal Weather Stations






























Interactive Weather Map
Tropical Storm Tracking
New forecast layout! Learn more

10-Day Weather Forecast

Advertisements
Track Severe Weather on mobile